Time;durP1;ratioP1;P1;durP2;ratioP2;P2;SDS_P1;SDS_P2;PMS_P1;PMS_P2;Temp;Humidity;BMP_temperature;BMP_pressure;BME280_temperature;BME280_humidity;BME280_pressure;Samples;Min_cycle;Max_cycle;Signal;HPM_P1;HPM_P2
2023/03/18 00:01:17;;;;;;;11.50;6.05;;;;;;;11.86;71.36;100728.81;5063736;28;20103;-82
2023/03/18 00:03:44;;;;;;;15.70;6.30;;;;;;;11.85;71.90;100725.28;5068877;28;20077;-80
2023/03/18 00:06:15;;;;;;;15.88;6.80;;;;;;;11.81;72.29;100721.84;5064798;28;20017;-82
2023/03/18 00:08:41;;;;;;;;;;;;;;;11.87;70.66;100720.84;5078669;28;20060;-81
2023/03/18 00:11:11;;;;;;;13.90;6.53;;;;;;;11.76;70.91;100717.59;5073280;28;19958;-82
2023/03/18 00:13:38;;;;;;;14.70;6.83;;;;;;;11.71;71.30;100708.91;5056718;28;20048;-82
2023/03/18 00:16:09;;;;;;;15.23;6.75;;;;;;;11.69;71.80;100710.72;5073907;28;20120;-82
2023/03/18 00:18:36;;;;;;;16.27;6.28;;;;;;;11.72;71.66;100713.28;5062011;28;20519;-82
2023/03/18 00:21:03;;;;;;;14.60;6.57;;;;;;;11.71;72.28;100717.72;5064409;28;20026;-82
2023/03/18 00:23:28;;;;;;;14.77;7.00;;;;;;;11.76;71.94;100728.19;5042145;28;20048;-82
2023/03/18 00:25:56;;;;;;;14.02;6.45;;;;;;;11.73;71.88;100721.19;5044413;28;20033;-82
2023/03/18 00:28:24;;;;;;;15.43;6.90;;;;;;;11.72;71.64;100722.13;5073415;28;20063;-82
2023/03/18 00:30:51;;;;;;;17.17;7.05;;;;;;;11.76;72.48;100725.56;5070857;28;20069;-82
2023/03/18 00:33:17;;;;;;;18.50;7.43;;;;;;;11.72;73.64;100731.84;5069800;28;20060;-82
2023/03/18 00:35:46;;;;;;;12.43;6.97;;;;;;;11.66;72.71;100730.25;5066593;28;20536;-81
2023/03/18 00:38:19;;;;;;;13.60;7.10;;;;;;;11.67;72.32;100729.34;5064997;28;20120;-82
2023/03/18 00:40:52;;;;;;;13.90;6.72;;;;;;;11.65;73.33;100736.47;5063316;28;20124;-81
2023/03/18 00:43:21;;;;;;;11.75;6.22;;;;;;;11.61;72.67;100733.03;5061254;28;20039;-82
2023/03/18 00:45:49;;;;;;;20.30;7.07;;;;;;;11.62;74.67;100739.19;5061889;28;20024;-81
2023/03/18 00:48:16;;;;;;;11.85;6.40;;;;;;;11.59;74.43;100741.94;5057480;28;20048;-81
2023/03/18 00:50:43;;;;;;;14.75;6.72;;;;;;;11.61;75.30;100746.28;5056872;28;20029;-81
2023/03/18 00:53:10;;;;;;;11.75;6.57;;;;;;;11.61;74.71;100740.97;5060977;28;20132;-81
2023/03/18 00:55:36;;;;;;;13.13;6.47;;;;;;;11.61;74.55;100740.13;5070895;28;20032;-81
2023/03/18 00:58:02;;;;;;;19.58;7.53;;;;;;;11.63;75.21;100748.91;5054132;28;20117;-82
2023/03/18 01:00:28;;;;;;;15.93;6.93;;;;;;;11.60;75.26;100744.56;5068086;28;20036;-81
2023/03/18 01:02:55;;;;;;;15.65;6.70;;;;;;;11.59;73.99;100742.78;5067377;28;20040;-81
2023/03/18 01:05:21;;;;;;;14.88;7.00;;;;;;;11.60;74.86;100741.03;5065302;28;20067;-81
2023/03/18 01:07:48;;;;;;;12.88;6.88;;;;;;;11.60;74.89;100747.22;5086801;28;20041;-81
2023/03/18 01:10:15;;;;;;;14.43;6.55;;;;;;;11.59;75.89;100750.75;5065697;28;20406;-81
2023/03/18 01:12:45;;;;;;;13.10;6.85;;;;;;;11.59;75.82;100745.44;5063746;28;20060;-81
2023/03/18 01:15:13;;;;;;;17.80;7.00;;;;;;;11.59;76.11;100740.16;5078999;28;20081;-81
2023/03/18 01:17:39;;;;;;;14.43;6.60;;;;;;;11.55;75.81;100749.13;5068853;28;20454;-81
2023/03/18 01:20:05;;;;;;;11.75;6.60;;;;;;;11.51;75.93;100743.94;5082709;28;20028;-80
2023/03/18 01:22:31;;;;;;;15.75;6.35;;;;;;;11.49;75.93;100741.31;5072972;28;20033;-81
2023/03/18 01:24:57;;;;;;;13.38;6.75;;;;;;;11.45;76.17;100739.69;5057874;28;20124;-81
2023/03/18 01:27:30;;;;;;;14.95;6.93;;;;;;;11.47;75.97;100744.91;5062609;28;20025;-81
2023/03/18 01:29:58;;;;;;;10.95;6.05;;;;;;;11.43;76.48;100744.16;5074553;28;20181;-74
2023/03/18 01:32:24;;;;;;;13.98;7.13;;;;;;;11.43;76.22;100740.63;5060972;28;20159;-73
2023/03/18 01:34:50;;;;;;;15.75;7.38;;;;;;;11.39;77.95;100738.03;5064277;28;20117;-73
2023/03/18 01:37:16;;;;;;;13.07;6.78;;;;;;;11.36;76.21;100740.78;5041363;28;20039;-73
2023/03/18 01:39:46;;;;;;;11.00;5.47;;;;;;;11.36;76.01;100738.13;5052880;28;20383;-73
2023/03/18 01:42:20;;;;;;;13.63;6.72;;;;;;;11.32;77.42;100738.25;5071672;28;20047;-73
2023/03/18 01:44:46;;;;;;;12.65;6.40;;;;;;;11.33;77.65;100740.88;5062793;28;20033;-73
2023/03/18 01:47:15;;;;;;;13.05;6.43;;;;;;;11.28;79.17;100737.47;5061882;28;20021;-73
2023/03/18 01:49:47;;;;;;;14.75;7.20;;;;;;;11.31;79.73;100740.03;5041856;28;20036;-73
2023/03/18 01:52:18;;;;;;;15.43;7.22;;;;;;;11.27;79.88;100730.41;5062977;28;20069;-73
2023/03/18 01:54:55;;;;;;;14.55;6.75;;;;;;;11.30;78.89;100745.38;5070685;28;20037;-73
2023/03/18 01:57:22;;;;;;;20.15;6.18;;;;;;;11.27;80.28;100741.00;5062725;28;20047;-73
2023/03/18 01:59:50;;;;;;;18.27;6.78;;;;;;;11.25;80.43;100734.91;5059719;28;20031;-73
2023/03/18 02:02:17;;;;;;;17.38;7.15;;;;;;;11.24;81.64;100735.81;5066647;28;20028;-73
2023/03/18 02:04:49;;;;;;;12.25;6.10;;;;;;;11.22;79.90;100732.31;5054658;28;20498;-73
2023/03/18 02:07:26;;;;;;;24.48;7.07;;;;;;;11.26;82.17;100741.94;5068465;28;20037;-73
2023/03/18 02:09:55;;;;;;;15.27;7.78;;;;;;;11.26;84.74;100741.06;5068610;28;20119;-74
2023/03/18 02:12:25;;;;;;;18.52;8.05;;;;;;;11.21;85.80;100733.25;5069685;28;20021;-72
2023/03/18 02:14:55;;;;;;;12.48;7.65;;;;;;;11.16;88.26;100733.34;5053337;28;20052;-73
2023/03/18 02:17:25;;;;;;;19.38;8.27;;;;;;;11.12;87.97;100734.34;5070227;28;20048;-73
2023/03/18 02:20:17;;;;;;;18.10;8.48;;;;;;;11.07;89.64;100738.88;5057896;28;20029;-73
2023/03/18 02:22:50;;;;;;;16.02;7.95;;;;;;;11.03;90.47;100744.28;5059344;28;20052;-73
2023/03/18 02:25:46;;;;;;;19.73;8.50;;;;;;;11.00;89.03;100739.09;5072455;28;20043;-73
2023/03/18 02:28:19;;;;;;;19.50;8.82;;;;;;;11.01;92.04;100746.13;5046005;28;20043;-73
2023/03/18 02:30:48;;;;;;;19.05;8.80;;;;;;;10.99;93.29;100748.81;5081699;28;20028;-73
2023/03/18 02:33:16;;;;;;;17.50;8.27;;;;;;;11.01;91.75;100759.38;5061908;28;20589;-73
2023/03/18 02:35:48;;;;;;;19.17;9.52;;;;;;;11.01;93.71;100765.56;5067269;28;20072;-72
2023/03/18 02:38:14;;;;;;;19.13;8.88;;;;;;;10.99;93.76;100756.75;5067462;28;20040;-72
2023/03/18 02:40:40;;;;;;;25.45;9.73;;;;;;;10.98;93.47;100763.84;5051868;28;20105;-72
2023/03/18 02:43:24;;;;;;;19.40;8.43;;;;;;;10.95;93.63;100766.59;5075702;28;20028;-73
2023/03/18 02:45:56;;;;;;;17.38;9.15;;;;;;;10.92;93.75;100763.13;5066073;28;20025;-73
2023/03/18 02:48:26;;;;;;;19.52;8.93;;;;;;;10.88;94.94;100769.38;5060996;28;20043;-73
2023/03/18 02:50:53;;;;;;;19.85;10.07;;;;;;;10.86;96.84;100765.94;5070306;28;20248;-73
2023/03/18 02:53:19;;;;;;;20.35;9.38;;;;;;;10.84;97.09;100773.03;5050090;28;20075;-73
2023/03/18 02:55:45;;;;;;;17.77;9.88;;;;;;;10.82;97.00;100772.19;5037147;28;20117;-73
2023/03/18 02:58:11;;;;;;;19.33;10.48;;;;;;;10.79;95.65;100775.78;5069580;28;20032;-73
2023/03/18 03:00:37;;;;;;;19.55;10.55;;;;;;;10.76;97.98;100774.09;5057933;28;20387;-73
2023/03/18 03:03:04;;;;;;;21.52;9.70;;;;;;;10.80;97.05;100774.00;5068605;28;20028;-73
2023/03/18 03:05:32;;;;;;;21.48;9.95;;;;;;;10.78;98.61;100784.66;5072001;28;20052;-73
2023/03/18 03:07:58;;;;;;;20.73;10.00;;;;;;;10.73;99.40;100790.06;5066912;28;20029;-73
2023/03/18 03:10:24;;;;;;;19.27;10.02;;;;;;;10.71;100.00;100785.72;5074041;28;20041;-80
2023/03/18 03:12:51;;;;;;;24.40;10.10;;;;;;;10.65;100.00;100793.78;5070580;28;20025;-80
2023/03/18 03:15:18;;;;;;;19.63;9.75;;;;;;;10.63;100.00;100791.19;5071047;28;20127;-73
2023/03/18 03:17:49;;;;;;;24.65;10.95;;;;;;;10.66;100.00;100800.84;5069948;28;20028;-73
2023/03/18 03:20:17;;;;;;;22.33;11.05;;;;;;;10.64;100.00;100805.28;5057354;28;20091;-73
2023/03/18 03:22:42;;;;;;;21.58;10.45;;;;;;;10.64;100.00;100806.16;5053586;28;20372;-73
2023/03/18 03:25:10;;;;;;;23.55;11.98;;;;;;;10.61;100.00;100811.53;5039066;28;20049;-73
2023/03/18 03:27:36;;;;;;;19.80;11.07;;;;;;;10.60;100.00;100807.13;5056301;28;20491;-73
2023/03/18 03:30:05;;;;;;;23.92;11.77;;;;;;;10.55;100.00;100801.06;5069660;28;20041;-73
2023/03/18 03:32:31;;;;;;;20.23;11.30;;;;;;;10.55;100.00;100809.88;5071010;28;20017;-73
2023/03/18 03:34:56;;;;;;;24.73;12.23;;;;;;;10.59;100.00;100810.69;5071580;28;20071;-73
2023/03/18 03:37:22;;;;;;;21.50;12.00;;;;;;;10.57;100.00;100808.97;5069810;28;20488;-73
2023/03/18 03:39:49;;;;;;;26.10;11.00;;;;;;;10.54;100.00;100804.63;5070224;28;20479;-73
2023/03/18 03:42:14;;;;;;;20.63;11.38;;;;;;;10.56;100.00;100813.41;5069746;28;20502;-73
2023/03/18 03:44:42;;;;;;;21.35;11.88;;;;;;;10.54;100.00;100812.56;5053625;28;20042;-73
2023/03/18 03:47:08;;;;;;;18.65;11.07;;;;;;;10.55;100.00;100814.31;5055654;28;20028;-73
2023/03/18 03:49:33;;;;;;;22.65;11.57;;;;;;;10.54;100.00;100824.03;5070088;28;20594;-73
2023/03/18 03:51:59;;;;;;;24.52;11.65;;;;;;;10.53;100.00;100816.09;5067980;28;20082;-79
2023/03/18 03:54:26;;;;;;;21.67;12.35;;;;;;;10.49;100.00;100811.81;5060105;28;20038;-80
2023/03/18 03:56:52;;;;;;;20.63;11.25;;;;;;;10.52;100.00;100811.72;5072003;28;20602;-80
2023/03/18 03:59:19;;;;;;;23.70;12.90;;;;;;;10.51;100.00;100813.50;5085298;28;20071;-81
2023/03/18 04:01:59;;;;;;;20.13;11.75;;;;;;;10.47;100.00;100806.53;5080138;28;20067;-80
2023/03/18 04:04:25;;;;;;;26.63;12.13;;;;;;;10.46;100.00;100815.38;5059717;28;20060;-80
2023/03/18 04:06:51;;;;;;;19.33;12.02;;;;;;;10.45;100.00;100812.75;5067825;28;20055;-80
2023/03/18 04:09:16;;;;;;;19.15;11.40;;;;;;;10.46;100.00;100818.03;5071498;28;20037;-79
2023/03/18 04:11:43;;;;;;;21.52;11.88;;;;;;;10.45;100.00;100807.47;5046859;28;20111;-80
2023/03/18 04:14:09;;;;;;;20.75;11.07;;;;;;;10.46;100.00;100820.69;5089618;28;20095;-80
2023/03/18 04:16:35;;;;;;;19.23;11.85;;;;;;;10.46;100.00;100822.44;5054572;28;20033;-80
2023/03/18 04:19:00;;;;;;;19.83;11.95;;;;;;;10.46;100.00;100822.44;5040076;28;20110;-80
2023/03/18 04:21:26;;;;;;;21.42;12.05;;;;;;;10.43;100.00;100823.38;5054557;28;20037;-80
2023/03/18 04:23:53;;;;;;;14.82;9.10;;;;;;;10.41;100.00;100819.91;5069648;28;20045;-79
2023/03/18 04:26:19;;;;;;;21.08;12.30;;;;;;;10.39;100.00;100819.06;5057754;28;20352;-79
2023/03/18 04:28:46;;;;;;;19.40;11.93;;;;;;;10.35;100.00;100811.22;5058243;28;20040;-80
2023/03/18 04:31:14;;;;;;;22.65;13.25;;;;;;;10.34;100.00;100818.31;5074296;28;20514;-80
2023/03/18 04:33:40;;;;;;;17.08;10.63;;;;;;;10.31;100.00;100818.34;5074018;28;20040;-79
2023/03/18 04:36:07;;;;;;;19.17;12.73;;;;;;;10.28;100.00;100824.56;5073996;28;20039;-79
2023/03/18 04:38:33;;;;;;;20.50;12.98;;;;;;;10.30;100.00;100828.06;5074195;28;20040;-79
2023/03/18 04:40:59;;;;;;;24.13;13.27;;;;;;;10.32;100.00;100839.50;5074417;28;20048;-79
2023/03/18 04:43:26;;;;;;;22.83;14.07;;;;;;;10.28;100.00;100823.72;5043328;28;20498;-80
2023/03/18 04:45:52;;;;;;;19.30;11.07;;;;;;;10.28;100.00;100827.22;5074028;28;20039;-79
2023/03/18 04:48:19;;;;;;;24.63;13.07;;;;;;;10.28;100.00;100835.16;5023443;28;20369;-80
2023/03/18 04:50:45;;;;;;;21.70;12.93;;;;;;;10.29;100.00;100836.91;5044914;28;20102;-79
2023/03/18 04:53:16;;;;;;;22.73;12.93;;;;;;;10.31;100.00;100836.88;5066470;28;20028;-79
2023/03/18 04:55:42;;;;;;;27.17;13.57;;;;;;;10.33;100.00;100845.66;5048120;28;20654;-79
2023/03/18 04:58:10;;;;;;;29.58;13.02;;;;;;;10.35;100.00;100845.63;5067610;28;20086;-79
2023/03/18 05:00:41;;;;;;;24.73;13.23;;;;;;;10.38;100.00;100843.78;5067020;28;20029;-79
2023/03/18 05:03:20;;;;;;;21.07;13.63;;;;;;;10.38;100.00;100842.91;5073280;28;20274;-79
2023/03/18 05:05:46;;;;;;;28.13;13.93;;;;;;;10.37;100.00;100850.00;5073484;28;20037;-79
2023/03/18 05:08:15;;;;;;;22.70;13.45;;;;;;;10.38;100.00;100846.44;5056668;28;20063;-79
2023/03/18 05:10:43;;;;;;;22.00;13.82;;;;;;;10.37;100.00;100847.34;5073224;28;20081;-79
2023/03/18 05:13:11;;;;;;;23.85;14.40;;;;;;;10.37;100.00;100855.28;5069596;28;20098;-78
2023/03/18 05:15:37;;;;;;;27.00;15.13;;;;;;;10.37;100.00;100854.41;5055237;28;20033;-79
2023/03/18 05:18:03;;;;;;;26.92;15.05;;;;;;;10.38;100.00;100853.50;5064851;28;20365;-78
2023/03/18 05:20:29;;;;;;;21.65;13.70;;;;;;;10.31;100.00;100851.00;5043176;28;20037;-79
2023/03/18 05:22:57;;;;;;;25.13;14.70;;;;;;;10.34;100.00;100860.66;5040576;28;20028;-78
2023/03/18 05:25:42;;;;;;;22.33;14.02;;;;;;;10.31;100.00;100856.28;5073163;28;20106;-78
2023/03/18 05:28:09;;;;;;;20.13;14.63;;;;;;;10.29;100.00;100860.75;5056073;28;20033;-78
2023/03/18 05:30:42;;;;;;;25.40;14.48;;;;;;;10.31;100.00;100864.25;5072956;28;20036;-78
2023/03/18 05:33:12;;;;;;;22.23;13.70;;;;;;;10.34;100.00;100860.66;5072980;28;20032;-78
2023/03/18 05:35:50;;;;;;;22.38;14.40;;;;;;;10.35;100.00;100861.53;5074280;28;20029;-79
2023/03/18 05:38:19;;;;;;;23.30;14.07;;;;;;;10.31;100.00;100856.28;5058952;28;20063;-72
2023/03/18 05:40:45;;;;;;;23.05;14.65;;;;;;;10.34;100.00;100852.72;5064594;28;20457;-72
2023/03/18 05:43:18;;;;;;;25.67;14.60;;;;;;;10.35;100.00;100846.50;5066826;28;20484;-72
2023/03/18 05:45:50;;;;;;;20.13;13.80;;;;;;;10.35;100.00;100843.84;5071563;28;20062;-72
2023/03/18 05:48:18;;;;;;;23.33;13.65;;;;;;;10.30;100.00;100848.38;5057359;28;20380;-72
2023/03/18 05:50:51;;;;;;;22.70;13.75;;;;;;;10.29;100.00;100854.59;5055683;28;20025;-72
2023/03/18 05:53:21;;;;;;;20.70;12.95;;;;;;;10.29;100.00;100865.16;5039282;28;20165;-72
2023/03/18 05:55:51;;;;;;;21.05;13.80;;;;;;;10.27;100.00;100866.94;5071387;28;20089;-72
2023/03/18 05:58:17;;;;;;;18.45;13.00;;;;;;;10.29;100.00;100873.13;5069615;28;20032;-73
2023/03/18 06:00:44;;;;;;;22.15;13.23;;;;;;;10.27;100.00;100880.16;5071198;28;20113;-72
2023/03/18 06:03:10;;;;;;;23.35;13.52;;;;;;;10.21;100.00;100883.81;5060723;28;20106;-72
2023/03/18 06:05:35;;;;;;;22.23;12.57;;;;;;;10.20;100.00;100883.84;5048060;28;20186;-72
2023/03/18 06:08:01;;;;;;;23.92;13.32;;;;;;;10.16;100.00;100885.66;5070895;28;20044;-72
2023/03/18 06:10:27;;;;;;;20.20;12.13;;;;;;;10.16;100.00;100892.72;5072394;28;20051;-72
2023/03/18 06:12:54;;;;;;;24.60;12.63;;;;;;;10.15;100.00;100899.81;5070977;28;20624;-72
2023/03/18 06:15:20;;;;;;;19.48;13.27;;;;;;;10.12;100.00;100902.50;5070812;28;20532;-72
2023/03/18 06:17:47;;;;;;;26.63;13.60;;;;;;;10.11;100.00;100893.72;5070268;28;20032;-72
2023/03/18 06:20:14;;;;;;;24.70;13.40;;;;;;;10.10;100.00;100888.44;5072398;28;20033;-72
2023/03/18 06:22:42;;;;;;;20.10;11.80;;;;;;;10.07;100.00;100891.16;5070739;28;20024;-72
2023/03/18 06:25:08;;;;;;;25.73;12.48;;;;;;;10.01;100.00;100884.19;5070714;28;20497;-72
2023/03/18 06:27:37;;;;;;;21.65;13.88;;;;;;;10.02;100.00;100885.06;5041615;28;20097;-72
2023/03/18 06:30:04;;;;;;;20.55;12.88;;;;;;;9.99;100.00;100893.03;5054395;28;20025;-72
2023/03/18 06:32:32;;;;;;;18.10;10.90;;;;;;;9.96;100.00;100890.47;5070342;28;20044;-72
2023/03/18 06:35:02;;;;;;;20.25;12.07;;;;;;;9.94;100.00;100890.50;5064918;28;20033;-72
2023/03/18 06:37:29;;;;;;;21.02;12.60;;;;;;;9.92;100.00;100889.66;5067339;28;20032;-72
2023/03/18 06:39:54;;;;;;;19.10;12.18;;;;;;;9.89;100.00;100889.69;5068337;28;20028;-72
2023/03/18 06:42:20;;;;;;;22.67;12.13;;;;;;;9.90;100.00;100888.81;5067681;28;20037;-72
2023/03/18 06:44:53;;;;;;;21.42;12.70;;;;;;;9.93;100.00;100896.69;5065439;28;20028;-72
2023/03/18 06:47:25;;;;;;;22.27;13.18;;;;;;;9.94;100.00;100903.75;5062800;28;20491;-72
2023/03/18 06:49:55;;;;;;;20.40;12.23;;;;;;;9.96;100.00;100909.84;5078056;28;20043;-72
2023/03/18 06:52:28;;;;;;;18.58;12.63;;;;;;;10.00;100.00;100908.03;5067704;28;20043;-71
2023/03/18 06:54:59;;;;;;;16.98;10.73;;;;;;;10.01;100.00;100904.47;5063335;28;20037;-72
2023/03/18 06:57:25;;;;;;;17.92;11.73;;;;;;;10.07;100.00;100907.88;5062565;28;20024;-72
2023/03/18 06:59:52;;;;;;;21.25;12.85;;;;;;;10.13;100.00;100920.13;5058436;28;20021;-72
2023/03/18 07:02:18;;;;;;;18.83;12.73;;;;;;;10.16;100.00;100919.19;5059969;28;20036;-72
2023/03/18 07:04:44;;;;;;;18.88;11.73;;;;;;;10.19;100.00;100927.06;5078108;28;20020;-72
2023/03/18 07:07:10;;;;;;;18.08;11.23;;;;;;;10.23;100.00;100924.34;5040393;28;20329;-72
2023/03/18 07:09:36;;;;;;;17.20;11.65;;;;;;;10.25;100.00;100930.47;5059290;28;20034;-71
2023/03/18 07:12:02;;;;;;;21.17;12.05;;;;;;;10.26;100.00;100929.59;5061423;28;20040;-72
2023/03/18 07:14:29;;;;;;;21.05;11.20;;;;;;;10.31;100.00;100930.41;5063356;28;20487;-72
2023/03/18 07:16:58;;;;;;;25.33;11.93;;;;;;;10.34;100.00;100940.06;5064899;28;20140;-71
2023/03/18 07:19:23;;;;;;;16.73;11.90;;;;;;;10.36;100.00;100932.06;5068218;28;20418;-71
2023/03/18 07:21:49;;;;;;;17.70;12.18;;;;;;;10.42;100.00;100937.25;5046804;28;20043;-71
2023/03/18 07:24:16;;;;;;;17.02;12.55;;;;;;;10.45;100.00;100939.84;5052908;28;20043;-71
2023/03/18 07:26:42;;;;;;;19.73;11.50;;;;;;;10.52;100.00;100934.41;5068535;28;20033;-71
2023/03/18 07:29:09;;;;;;;16.10;12.05;;;;;;;10.55;100.00;100946.69;5066055;28;20020;-71
2023/03/18 07:31:35;;;;;;;20.50;11.95;;;;;;;10.60;100.00;100941.31;5070831;28;20433;-71
2023/03/18 07:34:01;;;;;;;19.70;11.98;;;;;;;10.65;100.00;100947.38;5065273;28;20468;-71
2023/03/18 07:36:27;;;;;;;18.98;12.25;;;;;;;10.73;100.00;100945.44;5067641;28;20039;-71
2023/03/18 07:38:52;;;;;;;18.55;12.40;;;;;;;10.73;100.00;100951.63;5072895;28;20456;-70
2023/03/18 07:41:18;;;;;;;22.35;13.45;;;;;;;10.72;100.00;100956.94;5070852;28;20036;-71
2023/03/18 07:43:44;;;;;;;19.52;13.02;;;;;;;10.76;100.00;100956.88;5071135;28;20108;-71
2023/03/18 07:46:09;;;;;;;19.95;13.43;;;;;;;10.83;100.00;100959.38;5066048;28;20510;-72
2023/03/18 07:48:35;;;;;;;18.55;12.98;;;;;;;10.89;100.00;100959.25;5069346;28;20393;-72
2023/03/18 07:51:01;;;;;;;18.63;13.23;;;;;;;10.93;100.00;100968.91;5062361;28;20036;-72
2023/03/18 07:53:27;;;;;;;15.77;11.43;;;;;;;11.01;100.00;100966.94;5073318;28;20025;-72
2023/03/18 07:55:53;;;;;;;30.20;12.32;;;;;;;11.03;100.00;100970.44;5058894;28;20036;-72
2023/03/18 07:58:19;;;;;;;20.83;12.18;;;;;;;11.08;100.00;100978.28;5082692;28;20367;-72
2023/03/18 08:00:45;;;;;;;20.50;12.60;;;;;;;11.10;100.00;100979.09;5072997;28;20028;-72
2023/03/18 08:03:12;;;;;;;16.23;11.25;;;;;;;11.16;100.00;100979.00;5073233;28;20028;-72
2023/03/18 08:05:38;;;;;;;16.10;11.30;;;;;;;11.22;100.00;100968.22;5074994;28;20036;-72
2023/03/18 08:08:04;;;;;;;18.00;11.30;;;;;;;11.31;100.00;100978.63;5074495;28;20021;-72
2023/03/18 08:10:30;;;;;;;14.65;9.48;;;;;;;11.40;99.80;100977.56;5074694;28;20470;-72
2023/03/18 08:12:56;;;;;;;16.88;10.70;;;;;;;11.45;99.03;100965.06;5073265;28;20059;-72
2023/03/18 08:15:23;;;;;;;17.00;10.63;;;;;;;11.51;99.26;100964.91;5073154;28;20467;-72
2023/03/18 08:17:49;;;;;;;26.55;11.75;;;;;;;11.56;97.32;100959.50;5064504;28;20479;-71
2023/03/18 08:20:15;;;;;;;16.83;9.75;;;;;;;11.60;96.06;100959.41;5069362;28;20115;-72
2023/03/18 08:22:40;;;;;;;14.65;9.65;;;;;;;11.66;96.00;100957.50;5074199;28;20115;-71
2023/03/18 08:25:06;;;;;;;35.55;11.25;;;;;;;11.70;95.26;100962.69;5074462;28;20049;-72
2023/03/18 08:27:32;;;;;;;15.60;9.10;;;;;;;11.73;95.07;100959.97;5073074;28;20029;-72
2023/03/18 08:29:57;;;;;;;14.13;9.02;;;;;;;11.76;94.70;100956.38;5072705;28;20403;-72
2023/03/18 08:32:23;;;;;;;12.05;9.18;;;;;;;11.80;94.13;100955.38;5072879;28;20052;-72
2023/03/18 08:34:48;;;;;;;14.65;9.18;;;;;;;11.86;94.03;100960.53;5064618;28;20037;-72
2023/03/18 08:37:14;;;;;;;15.25;9.30;;;;;;;11.91;93.24;100957.78;5064156;28;20475;-72
2023/03/18 08:39:42;;;;;;;16.95;9.35;;;;;;;11.95;93.18;100949.72;5074020;28;20085;-72
2023/03/18 08:42:09;;;;;;;17.40;9.30;;;;;;;12.08;92.45;100958.22;5072083;28;20035;-72
2023/03/18 08:44:34;;;;;;;15.15;9.57;;;;;;;12.14;91.59;100960.75;5066463;28;20435;-72
2023/03/18 08:47:00;;;;;;;11.85;7.65;;;;;;;12.24;90.59;100956.06;5066926;28;20060;-72
2023/03/18 08:49:26;;;;;;;25.17;9.27;;;;;;;12.32;89.17;100956.72;5063003;28;20041;-72
2023/03/18 08:51:52;;;;;;;12.32;7.60;;;;;;;12.44;91.26;100961.69;5062677;28;20050;-72
2023/03/18 08:54:20;;;;;;;13.32;8.15;;;;;;;12.61;90.93;100963.88;5074530;28;20451;-72
2023/03/18 08:56:46;;;;;;;22.20;7.78;;;;;;;12.69;87.63;100972.50;5073464;28;20055;-72
2023/03/18 08:59:11;;;;;;;15.45;7.05;;;;;;;12.77;89.90;100971.41;5072554;28;20440;-72
2023/03/18 09:01:38;;;;;;;11.60;7.70;;;;;;;12.91;87.01;100978.06;5073504;28;20024;-72
2023/03/18 09:04:04;;;;;;;9.82;6.10;;;;;;;13.02;86.47;100984.84;5067013;28;20064;-72
2023/03/18 09:06:29;;;;;;;18.33;7.55;;;;;;;12.99;84.32;100980.47;5071948;28;20059;-72
2023/03/18 09:08:57;;;;;;;10.65;6.18;;;;;;;13.03;83.76;100976.84;5073576;28;20064;-72
2023/03/18 09:11:23;;;;;;;10.65;6.70;;;;;;;13.10;84.98;100983.72;5072310;28;20458;-72
2023/03/18 09:13:49;;;;;;;11.48;6.32;;;;;;;13.13;84.54;100980.09;5073079;28;20052;-72
2023/03/18 09:16:14;;;;;;;10.85;6.75;;;;;;;13.16;84.67;100979.13;5073402;28;20463;-72
2023/03/18 09:18:40;;;;;;;8.85;6.35;;;;;;;13.21;85.78;100978.06;5073540;28;20081;-72
2023/03/18 09:21:06;;;;;;;10.75;6.68;;;;;;;13.31;86.45;100982.19;5072248;28;20027;-72
2023/03/18 09:23:33;;;;;;;12.43;6.55;;;;;;;13.39;84.54;100984.63;5073199;28;20060;-72
2023/03/18 09:25:59;;;;;;;29.13;7.43;;;;;;;13.41;84.22;100990.78;5073197;28;20024;-72
2023/03/18 09:28:25;;;;;;;9.57;5.82;;;;;;;13.37;83.56;100980.28;5072089;28;20049;-72
2023/03/18 09:30:51;;;;;;;16.63;6.72;;;;;;;13.29;83.52;100992.00;5071837;28;20028;-72
2023/03/18 09:33:17;;;;;;;13.13;6.60;;;;;;;13.22;83.96;100992.22;5072465;28;20024;-72
2023/03/18 09:35:43;;;;;;;9.98;6.65;;;;;;;13.18;84.19;100990.56;5071526;28;20482;-72
2023/03/18 09:38:15;;;;;;;9.77;6.47;;;;;;;13.12;84.95;100979.19;5056938;28;20113;-72
2023/03/18 09:41:05;;;;;;;12.48;6.15;;;;;;;13.18;85.26;100995.88;5072527;28;20036;-72
2023/03/18 09:43:51;;;;;;;19.85;7.07;;;;;;;13.25;84.78;100994.78;5058027;28;20040;-72
2023/03/18 09:46:38;;;;;;;14.82;6.78;;;;;;;13.31;84.71;100990.19;5071299;28;20403;-72
2023/03/18 09:49:08;;;;;;;18.75;6.90;;;;;;;13.44;84.45;100988.00;5062828;28;20059;-72
2023/03/18 09:51:57;;;;;;;42.25;9.13;;;;;;;13.50;83.77;100985.16;5065991;28;20032;-72
2023/03/18 09:54:31;;;;;;;39.75;7.18;;;;;;;13.53;81.93;100989.53;5070548;28;20075;-72
2023/03/18 09:56:57;;;;;;;16.98;6.20;;;;;;;13.55;82.43;100988.56;5070877;28;20028;-72
2023/03/18 09:59:36;;;;;;;12.13;6.15;;;;;;;13.66;81.73;100979.34;5070545;28;20036;-72
2023/03/18 10:02:08;;;;;;;12.07;5.60;;;;;;;13.84;80.21;100985.84;5072270;28;20024;-72
2023/03/18 10:04:48;;;;;;;11.50;4.90;;;;;;;14.04;79.32;100982.53;5066284;28;20138;-78
2023/03/18 10:07:21;;;;;;;10.77;3.72;;;;;;;14.20;78.13;100986.41;5058721;28;20128;-79
2023/03/18 10:09:53;;;;;;;13.35;5.18;;;;;;;14.33;77.69;100986.84;5073174;28;20490;-79
2023/03/18 10:13:04;;;;;;;10.05;5.32;;;;;;;14.60;79.33;100977.03;5073109;28;20043;-79
2023/03/18 10:15:36;;;;;;;7.65;4.78;;;;;;;14.70;77.69;100985.56;5011414;28;20145;-79
2023/03/18 10:18:09;;;;;;;10.35;5.72;;;;;;;14.80;76.96;100985.16;5011452;28;20583;-79
2023/03/18 10:20:56;;;;;;;6.60;3.90;;;;;;;14.95;77.16;100982.84;5049328;28;20056;-79
2023/03/18 10:23:40;;;;;;;9.43;4.20;;;;;;;15.17;76.03;100983.75;5073453;28;20554;-78
2023/03/18 10:26:16;;;;;;;52.08;7.03;;;;;;;15.41;75.44;100981.94;5060503;28;20336;-79
2023/03/18 10:28:56;;;;;;;13.00;4.75;;;;;;;15.66;72.57;100975.63;5070569;28;20039;-72
2023/03/18 10:31:30;;;;;;;49.38;7.10;;;;;;;15.86;70.72;100982.84;5071986;28;20037;-72
2023/03/18 10:34:05;;;;;;;8.48;3.78;;;;;;;15.86;71.48;100981.03;5072079;28;20028;-72
2023/03/18 10:36:41;;;;;;;18.45;4.53;;;;;;;16.01;68.82;100986.69;5065278;28;20029;-72
2023/03/18 10:39:16;;;;;;;9.23;3.92;;;;;;;16.25;69.91;100977.59;5064518;28;20131;-72
2023/03/18 10:41:46;;;;;;;7.57;3.30;;;;;;;16.29;67.62;100973.00;5051932;28;20084;-72
2023/03/18 10:44:20;;;;;;;8.23;2.83;;;;;;;16.23;68.17;100981.28;5064126;28;20062;-72
2023/03/18 10:46:49;;;;;;;10.27;3.22;;;;;;;16.11;65.75;100980.88;5070275;28;20440;-72
2023/03/18 10:49:28;;;;;;;7.43;2.80;;;;;;;16.11;69.09;100980.00;5071769;28;20025;-72
2023/03/18 10:52:00;;;;;;;11.18;3.17;;;;;;;16.10;67.74;100979.13;5062604;28;20044;-73
2023/03/18 10:54:40;;;;;;;11.63;3.30;;;;;;;16.12;69.09;100971.94;5041182;28;20207;-72
2023/03/18 10:57:05;;;;;;;15.50;3.47;;;;;;;16.15;68.75;100970.94;5058158;28;20423;-72
2023/03/18 10:59:33;;;;;;;10.30;3.20;;;;;;;16.06;66.91;100976.66;5065963;28;20036;-72
2023/03/18 11:02:03;;;;;;;27.90;4.95;;;;;;;15.89;65.88;100970.22;5071532;28;20040;-72
2023/03/18 11:04:37;;;;;;;40.90;5.85;;;;;;;15.76;66.81;100968.13;5071392;28;20132;-72
2023/03/18 11:07:07;;;;;;;10.88;3.13;;;;;;;15.67;69.07;100966.66;5066997;28;20037;-72
2023/03/18 11:09:35;;;;;;;15.25;3.83;;;;;;;15.65;65.62;100971.19;5062727;28;20032;-72
2023/03/18 11:12:17;;;;;;;26.70;4.30;;;;;;;15.59;64.80;100969.66;5067065;28;20033;-72
2023/03/18 11:14:47;;;;;;;13.38;2.92;;;;;;;15.46;64.26;100968.41;5061446;28;20057;-72
2023/03/18 11:17:30;;;;;;;9.93;2.65;;;;;;;15.42;65.28;100959.66;5071486;28;20090;-72
2023/03/18 11:20:00;;;;;;;13.60;2.55;;;;;;;15.40;65.92;100968.66;5059245;28;20028;-71